Kawkawlin, MI (48631)

1:15 AM EDT on August 30, 2015 (GMT -0400)
Killarney Beach | | Change Station
CLOSE
Current Station
Personal Weather Station
Location: Bay City, MI
Elevation: 581 ft
Nearby Weather Stations

Elev 581 ft 43.69 °N, 83.92 °W | Updated 7 minutes ago

Overcast
Overcast
64.7 °F
Feels Like 64.7 °F
N
0.0
Wind Variable Wind from NW
Gusts 1.0 mph

Today
High -- | Low -- °F
--% Chance of Precip.
Yesterday
High -- | Low -- °F
Precip. -- in
6:57 AM 8:15 PM
Full, 100% visible
Pressure 30.07 in
Visibility 2.5 miles
Clouds Overcast 5000 ft
Dew Point 63 °F
Humidity 95%
Rainfall 0.00 in
Snow Depth Not available.
UV 0 out of 12
Pollen 8.60 out of 12
Air Quality Not available.
Flu Activity Not available.
METAR KMBS 300453Z 04003KT 2 1/2SM BR OVC050 19/17 A3007 RMK AO2 SLP182 T01890172 402110172
Pressure 30.07 in
Visibility 2.5 miles
Clouds Overcast 5000 ft
Dew Point 63 °F
Humidity 95%
Rainfall 0.00 in
Snow Depth Not available.
UV 0 out of 12
Pollen 8.60 out of 12
Air Quality Not available.
Flu Activity Not available.
METAR KMBS 300453Z 04003KT 2 1/2SM BR OVC050 19/17 A3007 RMK AO2 SLP182 T01890172 402110172

10-Day Weather Forecast

×

Almanac

Astronomy

Aug. 30, 2015 Rise Set
Actual Time
Civil Twilight
Nautical Twilight
Astronomical Twilight
Moon
Length of Visible Light
Length of Day
Tomorrow will be .
, % of the Moon is Illuminated

Today's Extremes

State Highs State Lows

Community

WunderPhotos

Upload Photos

1,850,895 photos uploaded!

WunderBlogs® & News

Nearby

Air Quality

  Air Quality AQ Index Pollutant
Not available.

Snow Depth

Station Depth Elevation

Earthquake Activity

City Distance Mag. Time & Date
Minimum magnitude displayed is 2.5.

Coastal Water Temperatures

Place Temperature

Stations

Nearby Weather Stations

Station Location Temp. Windchill Dew Point Humidity Wind Precip. Elev Updated Type